Terminal Aerodrome Forecast
Issued by NWS North Platte, NE

Home | Current Version | Previous Version | Graphics & Text | Print | Product List | Glossary On
Versions: 1 2 3 4 5 6 7 8 9 10 11 12 13
000
FTUS43 KLBF 231100
TAFVTN
TAF
KVTN 231120Z 2312/2412 25007KT P6SM BKN100
     FM231700 31014G23KT P6SM SCT100
     FM240000 31006KT P6SM SKC=

USA.gov is the U.S. government's official web portal to all federal, state and local government web resources and services.